Time;durP1;ratioP1;P1;durP2;ratioP2;P2;SDS_P1;SDS_P2;PMS_P1;PMS_P2;Temp;Humidity;BMP_temperature;BMP_pressure;BME280_temperature;BME280_humidity;BME280_pressure;Samples;Min_cycle;Max_cycle;Signal;HPM_P1;HPM_P2
2023/10/12 00:00:42;;;;;;;0.00;0.00;;;18.70;99.90;;;;;;6217054;23;20351;-89
2023/10/12 00:03:12;;;;;;;0.00;0.00;;;;;;;;;;6217425;23;20027;-88
2023/10/12 00:05:38;;;;;;;0.00;0.00;;;18.70;99.90;;;;;;6216834;23;20452;-89
2023/10/12 00:08:08;;;;;;;0.00;0.00;;;18.70;99.90;;;;;;6217144;23;20005;-88
2023/10/12 00:10:41;;;;;;;0.00;0.00;;;;;;;;;;6217259;23;20007;-88
2023/10/12 00:13:11;;;;;;;0.00;0.00;;;18.60;99.90;;;;;;6217555;23;20396;-88
2023/10/12 00:15:41;;;;;;;;;;;18.60;99.90;;;;;;6217382;23;20012;-87
2023/10/12 00:18:10;;;;;;;0.00;0.00;;;18.50;99.90;;;;;;6217097;23;20358;-88
2023/10/12 00:20:37;;;;;;;0.00;0.00;;;;;;;;;;6216858;23;20008;-89
2023/10/12 00:23:10;;;;;;;0.00;0.00;;;18.40;99.90;;;;;;6217023;23;20344;-89
2023/10/12 00:25:58;;;;;;;0.00;0.00;;;18.50;99.90;;;;;;6242674;22;20489;-89
2023/10/12 00:28:28;;;;;;;0.00;0.00;;;18.50;99.90;;;;;;6216594;23;20061;-88
2023/10/12 00:31:05;;;;;;;0.00;0.00;;;18.40;99.90;;;;;;6216921;23;20069;-89
2023/10/12 00:33:31;;;;;;;0.00;0.00;;;;;;;;;;6217054;23;20004;-89
2023/10/12 00:36:01;;;;;;;0.00;0.00;;;;;;;;;;6216637;23;20201;-89
2023/10/12 00:38:29;;;;;;;0.00;0.00;;;18.40;99.90;;;;;;6217096;23;20087;-88
2023/10/12 00:41:03;;;;;;;0.00;0.00;;;18.20;99.90;;;;;;6216777;23;20008;-88
2023/10/12 00:43:36;;;;;;;0.00;0.00;;;;;;;;;;6216162;23;20008;-89
2023/10/12 00:46:21;;;;;;;0.00;0.00;;;;;;;;;;6218287;23;20088;-89
2023/10/12 00:51:49;;;;;;;0.00;0.00;;;18.30;99.90;;;;;;6225483;23;20002;-89
2023/10/12 00:54:28;;;;;;;0.00;0.00;;;18.40;99.90;;;;;;6218524;23;20003;-89
2023/10/12 00:56:55;;;;;;;0.00;0.00;;;18.40;99.90;;;;;;6218506;23;20043;-89
2023/10/12 00:59:22;;;;;;;0.00;0.00;;;18.50;99.90;;;;;;6218977;23;20747;-89
2023/10/12 01:01:51;;;;;;;0.00;0.00;;;18.40;99.90;;;;;;6218418;23;20018;-88
2023/10/12 01:04:17;;;;;;;0.00;0.00;;;18.30;99.90;;;;;;6218273;23;20698;-89
2023/10/12 01:06:49;;;;;;;0.00;0.00;;;18.20;99.90;;;;;;6217930;23;20006;-88
2023/10/12 01:09:18;;;;;;;0.00;0.00;;;;;;;;;;6218789;23;20005;-88
2023/10/12 01:11:52;;;;;;;0.00;0.00;;;18.20;99.90;;;;;;6218522;23;20335;-89
2023/10/12 01:14:17;;;;;;;0.00;0.00;;;18.10;99.90;;;;;;6217826;23;20372;-88
2023/10/12 01:16:54;;;;;;;0.00;0.00;;;;;;;;;;6218163;23;20038;-88
2023/10/12 01:19:23;;;;;;;0.00;0.00;;;17.90;99.90;;;;;;6218330;23;20004;-89
2023/10/12 01:22:11;;;;;;;0.00;0.00;;;17.80;99.90;;;;;;6217520;23;20680;-89
2023/10/12 01:24:43;;;;;;;0.00;0.00;;;;;;;;;;6218054;22;20012;-89
2023/10/12 01:27:12;;;;;;;0.00;0.00;;;17.60;99.90;;;;;;6217816;23;20037;-88
2023/10/12 01:29:38;;;;;;;0.00;0.00;;;17.60;99.90;;;;;;6216567;23;20016;-89
2023/10/12 01:34:36;;;;;;;0.00;0.00;;;;;;;;;;6245374;22;20028;-89
2023/10/12 01:37:21;;;;;;;0.00;0.00;;;17.40;99.90;;;;;;6217533;23;20011;-89
2023/10/12 01:40:12;;;;;;;0.00;0.00;;;17.50;99.90;;;;;;6217488;23;20008;-88
2023/10/12 01:45:07;;;;;;;0.00;0.00;;;17.50;99.90;;;;;;6245052;22;20008;-88
2023/10/12 01:47:37;;;;;;;0.00;0.00;;;17.40;99.90;;;;;;6216979;23;20435;-89
2023/10/12 01:50:05;;;;;;;0.00;0.00;;;17.30;99.90;;;;;;6218084;23;20007;-89
2023/10/12 01:52:31;;;;;;;0.00;0.00;;;;;;;;;;6217354;23;19996;-88
2023/10/12 01:54:58;;;;;;;0.00;0.00;;;;;;;;;;6217606;23;20004;-88
2023/10/12 01:57:35;;;;;;;0.00;0.00;;;17.40;99.90;;;;;;6218099;23;20004;-88
2023/10/12 02:00:15;;;;;;;0.00;0.00;;;17.30;99.90;;;;;;6218300;23;20004;-88
2023/10/12 02:02:50;;;;;;;0.00;0.00;;;17.20;99.90;;;;;;6218110;23;20011;-88
2023/10/12 02:05:26;;;;;;;0.00;0.00;;;17.40;99.90;;;;;;6218101;23;20026;-88
2023/10/12 02:07:53;;;;;;;0.00;0.00;;;17.50;99.90;;;;;;6217776;23;20462;-88
2023/10/12 02:10:18;;;;;;;0.00;0.00;;;;;;;;;;6218023;23;20032;-89
2023/10/12 02:12:46;;;;;;;0.00;0.00;;;;;;;;;;6217572;23;20058;-88
2023/10/12 02:15:15;;;;;;;0.00;0.00;;;17.20;99.90;;;;;;6217203;23;20004;-89
2023/10/12 02:17:42;;;;;;;0.00;0.00;;;17.10;99.90;;;;;;6217852;23;20012;-89
2023/10/12 02:20:11;;;;;;;0.00;0.00;;;17.20;99.90;;;;;;6244105;23;20131;-89
2023/10/12 02:22:37;;;;;;;0.00;0.00;;;;;;;;;;6216866;23;20004;-88
2023/10/12 02:25:18;;;;;;;0.00;0.00;;;17.10;99.90;;;;;;6217642;23;20008;-88
2023/10/12 02:27:54;;;;;;;0.00;0.00;;;;;;;;;;6217367;23;20012;-87
2023/10/12 02:30:27;;;;;;;0.00;0.00;;;17.20;99.90;;;;;;6216806;23;20000;-88
2023/10/12 02:33:00;;;;;;;0.00;0.00;;;17.10;99.90;;;;;;6217611;23;20000;-87
2023/10/12 02:35:27;;;;;;;0.00;0.00;;;17.00;99.90;;;;;;6217966;23;20000;-88
2023/10/12 02:37:53;;;;;;;0.00;0.00;;;;;;;;;;6217675;23;20004;-88
2023/10/12 02:40:20;;;;;;;0.00;0.00;;;16.90;99.90;;;;;;6218024;23;20677;-89
2023/10/12 02:42:51;;;;;;;0.00;0.00;;;;;;;;;;6217568;23;20007;-88
2023/10/12 02:45:17;;;;;;;0.00;0.00;;;16.90;99.90;;;;;;6217017;23;19996;-87
2023/10/12 02:48:05;;;;;;;0.00;0.00;;;16.90;99.90;;;;;;6217114;23;20004;-88
2023/10/12 02:50:37;;;;;;;0.00;0.00;;;;;;;;;;6243844;23;20474;-87
2023/10/12 02:53:09;;;;;;;0.00;0.00;;;16.90;99.90;;;;;;6217166;23;20080;-88
2023/10/12 02:55:40;;;;;;;0.00;0.00;;;;;;;;;;6216467;23;20030;-88
2023/10/12 02:58:19;;;;;;;0.00;0.00;;;16.80;99.90;;;;;;6217621;23;19992;-88
2023/10/12 03:00:47;;;;;;;0.00;0.00;;;;;;;;;;6216963;23;20004;-86
2023/10/12 03:03:24;;;;;;;0.00;0.00;;;16.80;99.90;;;;;;6217021;23;20000;-89
2023/10/12 03:05:52;;;;;;;0.00;0.00;;;16.70;99.90;;;;;;6216732;23;20019;-87
2023/10/12 03:08:23;;;;;;;0.00;0.00;;;16.80;99.90;;;;;;6216688;23;20085;-87
2023/10/12 03:13:39;;;;;;;0.00;0.00;;;16.60;99.90;;;;;;6243306;23;20005;-87
2023/10/12 03:16:41;;;;;;;0.00;0.00;;;16.50;99.90;;;;;;6215112;23;20008;-87
2023/10/12 03:19:00;;;;;;;0.00;0.00;;;16.60;99.90;;;;;;6237980;23;20015;-86
2023/10/12 03:21:33;;;;;;;0.00;0.00;;;16.50;99.90;;;;;;6215178;23;20431;-86
2023/10/12 03:24:02;;;;;;;0.00;0.00;;;16.60;99.90;;;;;;6215669;23;20015;-87
2023/10/12 03:26:28;;;;;;;0.00;0.00;;;;;;;;;;6215138;23;20471;-86
2023/10/12 03:29:02;;;;;;;0.00;0.00;;;16.40;99.90;;;;;;6214518;23;20087;-86
2023/10/12 03:31:35;;;;;;;0.00;0.00;;;16.40;99.90;;;;;;6214519;23;20115;-85
2023/10/12 03:36:58;;;;;;;0.00;0.00;;;;;;;;;;6241916;23;20015;-87
2023/10/12 03:52:19;;;;;;;0.00;0.00;;;;;;;;;;6241775;23;20010;-87
2023/10/12 03:55:32;;;;;;;0.00;0.00;;;;;;;;;;6214298;22;20011;-86
2023/10/12 04:02:42;;;;;;;0.00;0.00;;;16.10;99.90;;;;;;6252191;23;20012;-86
2023/10/12 04:16:27;;;;;;;0.00;0.00;;;15.80;99.90;;;;;;6237873;22;20005;-87
2023/10/12 04:21:33;;;;;;;0.00;0.00;;;;;;;;;;6242895;23;20043;-86
2023/10/12 04:29:02;;;;;;;0.00;0.00;;;15.60;99.90;;;;;;6243902;23;20015;-87
2023/10/12 04:36:38;;;;;;;0.00;0.00;;;15.70;99.90;;;;;;6245465;22;20012;-87
2023/10/12 04:41:42;;;;;;;0.00;0.00;;;15.60;99.90;;;;;;6253325;23;20008;-87
2023/10/12 04:47:23;;;;;;;0.00;0.00;;;15.60;99.90;;;;;;6242761;22;20353;-87
2023/10/12 04:57:32;;;;;;;0.00;0.00;;;15.60;99.90;;;;;;6253588;23;20004;-86
2023/10/12 05:02:28;;;;;;;0.00;0.00;;;;;;;;;;6243598;23;20008;-87
2023/10/12 05:07:27;;;;;;;0.00;0.00;;;;;;;;;;6244772;23;20089;-87
2023/10/12 05:09:53;;;;;;;0.00;0.00;;;;;;;;;;6242884;23;20083;-86
2023/10/12 05:12:20;;;;;;;0.00;0.00;;;15.60;99.90;;;;;;6215533;23;20374;-87
2023/10/12 05:14:47;;;;;;;0.00;0.00;;;;;;;;;;6243206;22;20015;-87
2023/10/12 05:17:13;;;;;;;0.00;0.00;;;;;;;;;;6216854;23;20347;-86
2023/10/12 05:19:41;;;;;;;0.00;0.00;;;;;;;;;;6217061;23;20435;-87
2023/10/12 05:22:07;;;;;;;0.03;0.03;;;;;;;;;;6215823;23;20012;-88
2023/10/12 05:24:33;;;;;;;0.00;0.00;;;;;;;;;;6216833;22;20443;-86
2023/10/12 05:27:09;;;;;;;0.00;0.00;;;;;;;;;;6216414;23;20477;-88
2023/10/12 05:29:38;;;;;;;0.00;0.00;;;15.70;99.90;;;;;;6215992;23;20039;-87
2023/10/12 05:37:16;;;;;;;0.00;0.00;;;;;;;;;;6244058;23;20015;-86
2023/10/12 05:39:46;;;;;;;0.00;0.00;;;15.60;99.90;;;;;;6216621;23;20027;-87
2023/10/12 05:42:14;;;;;;;0.00;0.00;;;15.70;99.90;;;;;;6213949;23;20529;-87
2023/10/12 05:44:42;;;;;;;0.00;0.00;;;;;;;;;;6214747;22;20004;-85
2023/10/12 05:47:11;;;;;;;0.00;0.00;;;15.80;99.90;;;;;;6215947;23;20014;-86
2023/10/12 05:49:38;;;;;;;0.00;0.00;;;;;;;;;;6215040;23;20000;-86
2023/10/12 05:52:08;;;;;;;0.00;0.00;;;;;;;;;;6243228;23;20487;-88
2023/10/12 05:54:34;;;;;;;0.00;0.00;;;15.90;99.90;;;;;;6214326;22;20001;-87
2023/10/12 05:57:34;;;;;;;0.00;0.00;;;;;;;;;;6215828;23;20079;-87
2023/10/12 05:59:52;;;;;;;0.00;0.00;;;15.70;99.90;;;;;;6237267;23;20015;-87
2023/10/12 06:02:18;;;;;;;0.00;0.00;;;;;;;;;;6215914;23;20013;-87
2023/10/12 06:04:44;;;;;;;0.00;0.00;;;;;;;;;;6216252;22;20000;-86
2023/10/12 06:07:11;;;;;;;0.00;0.00;;;15.70;99.90;;;;;;6216534;23;20026;-87
2023/10/12 06:09:37;;;;;;;0.00;0.00;;;15.70;99.90;;;;;;6242707;23;19998;-87
2023/10/12 06:12:07;;;;;;;0.00;0.00;;;15.70;99.90;;;;;;6216627;23;20000;-87
2023/10/12 06:14:39;;;;;;;0.00;0.00;;;15.70;99.90;;;;;;6215480;22;20000;-88
2023/10/12 06:17:06;;;;;;;0.00;0.00;;;15.80;99.90;;;;;;6216427;23;20004;-87
2023/10/12 06:19:34;;;;;;;0.00;0.00;;;15.70;99.90;;;;;;6243017;23;20000;-86
2023/10/12 06:22:13;;;;;;;0.00;0.00;;;15.60;99.90;;;;;;6215526;23;20066;-87
2023/10/12 06:24:41;;;;;;;0.00;0.00;;;;;;;;;;6215624;22;20066;-87
2023/10/12 06:29:49;;;;;;;0.00;0.00;;;15.70;99.90;;;;;;6212344;23;20328;-87
2023/10/12 06:32:21;;;;;;;0.00;0.00;;;15.70;99.90;;;;;;6184973;23;20009;-88
2023/10/12 06:38:15;;;;;;;0.00;0.00;;;15.50;99.90;;;;;;6211841;23;20044;-88
2023/10/12 06:40:38;;;;;;;0.00;0.00;;;15.30;99.90;;;;;;6211696;23;20012;-88
2023/10/12 06:51:02;;;;;;;0.00;0.00;;;;;;;;;;6223857;23;20005;-89
2023/10/12 06:53:34;;;;;;;0.00;0.00;;;15.30;99.90;;;;;;6213170;23;20008;-87
2023/10/12 06:56:15;;;;;;;0.00;0.00;;;15.90;99.90;;;;;;6185744;23;20015;-87
2023/10/12 06:59:09;;;;;;;0.00;0.00;;;15.60;99.90;;;;;;6184024;23;20001;-88
2023/10/12 07:04:17;;;;;;;0.00;0.00;;;16.00;99.90;;;;;;6221150;23;20004;-88
2023/10/12 07:06:56;;;;;;;0.00;0.00;;;15.80;99.90;;;;;;6184652;23;20008;-88
2023/10/12 07:09:39;;;;;;;0.00;0.00;;;15.30;99.90;;;;;;6182413;23;20036;-90
2023/10/12 07:12:20;;;;;;;0.00;0.00;;;15.00;99.90;;;;;;6182309;23;20035;-87
2023/10/12 07:14:46;;;;;;;0.00;0.00;;;14.70;99.90;;;;;;6183970;23;20084;-88
2023/10/12 07:17:16;;;;;;;0.00;0.00;;;14.90;99.90;;;;;;6185890;23;20032;-87
2023/10/12 07:19:46;;;;;;;0.00;0.00;;;;;;;;;;6186464;23;20009;-86
2023/10/12 07:22:15;;;;;;;0.00;0.00;;;;;;;;;;6186287;23;19997;-87
2023/10/12 07:24:42;;;;;;;0.00;0.00;;;;;;;;;;6186063;23;20001;-88
2023/10/12 07:27:21;;;;;;;0.00;0.00;;;14.20;99.90;;;;;;6185858;23;20015;-86
2023/10/12 07:29:48;;;;;;;0.00;0.00;;;14.30;99.90;;;;;;6186732;23;20412;-87
2023/10/12 07:32:56;;;;;;;0.00;0.00;;;14.50;99.90;;;;;;6186914;23;20004;-87
2023/10/12 07:35:07;;;;;;;0.00;0.00;;;14.40;99.90;;;;;;6202010;23;20011;-88
2023/10/12 07:37:33;;;;;;;0.00;0.00;;;14.70;99.90;;;;;;6183823;23;20005;-87
2023/10/12 07:40:16;;;;;;;0.00;0.00;;;;;;;;;;6212606;23;20011;-88
2023/10/12 07:42:42;;;;;;;0.00;0.00;;;15.20;99.90;;;;;;6185574;23;20001;-88
2023/10/12 07:45:09;;;;;;;0.00;0.00;;;15.40;99.90;;;;;;6210939;23;20145;-87
2023/10/12 07:47:40;;;;;;;0.00;0.00;;;15.40;99.90;;;;;;6186392;23;20563;-88
2023/10/12 07:50:09;;;;;;;0.03;0.03;;;15.40;99.90;;;;;;6186960;23;20001;-88
2023/10/12 07:55:07;;;;;;;0.00;0.00;;;15.00;99.90;;;;;;6214204;23;20005;-87
2023/10/12 07:57:36;;;;;;;0.00;0.00;;;;;;;;;;6188556;23;20009;-88
2023/10/12 08:05:33;;;;;;;0.00;0.00;;;14.30;99.90;;;;;;6215051;23;20317;-88
2023/10/12 08:21:17;;;;;;;0.00;0.00;;;14.90;99.90;;;;;;6214800;23;20020;-87
2023/10/12 08:23:49;;;;;;;0.00;0.00;;;15.00;99.90;;;;;;6188344;23;20340;-87
2023/10/12 08:26:33;;;;;;;0.00;0.00;;;;;;;;;;6188433;23;20001;-87
2023/10/12 08:28:59;;;;;;;0.00;0.00;;;;;;;;;;6210680;23;20081;-87
2023/10/12 08:31:29;;;;;;;0.00;0.00;;;;;;;;;;6218292;23;20570;-88
2023/10/12 08:34:13;;;;;;;0.00;0.00;;;;;;;;;;6217918;23;20010;-87
2023/10/12 08:37:07;;;;;;;0.00;0.00;;;14.60;99.90;;;;;;6217735;23;20011;-88
2023/10/12 08:39:37;;;;;;;0.00;0.00;;;;;;;;;;6244860;23;20004;-87
2023/10/12 08:44:48;;;;;;;0.00;0.00;;;14.70;99.90;;;;;;6250801;22;20432;-87
2023/10/12 08:52:53;;;;;;;0.00;0.00;;;14.60;99.90;;;;;;6255137;23;20005;-87
2023/10/12 08:55:24;;;;;;;0.00;0.00;;;14.40;99.90;;;;;;6217050;23;20008;-88
2023/10/12 08:57:56;;;;;;;0.00;0.00;;;14.40;99.90;;;;;;6215993;23;20012;-87
2023/10/12 09:00:44;;;;;;;0.00;0.00;;;14.50;99.90;;;;;;6217429;23;20359;-88
2023/10/12 09:05:54;;;;;;;0.00;0.00;;;14.70;99.90;;;;;;6244942;22;20008;-88
2023/10/12 09:11:02;;;;;;;0.00;0.00;;;14.90;99.90;;;;;;6243115;23;20004;-87
2023/10/12 09:13:36;;;;;;;0.00;0.00;;;14.90;99.90;;;;;;6217691;23;20011;-87
2023/10/12 09:16:14;;;;;;;0.00;0.00;;;14.90;99.90;;;;;;6217035;23;20004;-88
2023/10/12 09:18:44;;;;;;;0.00;0.00;;;14.80;99.90;;;;;;6217896;23;20062;-88
2023/10/12 09:23:58;;;;;;;0.00;0.00;;;15.10;99.90;;;;;;6254625;23;20003;-88
2023/10/12 09:26:30;;;;;;;0.00;0.00;;;15.00;99.90;;;;;;6217305;23;20390;-89
2023/10/12 09:36:44;;;;;;;0.00;0.00;;;15.50;99.90;;;;;;6247528;22;20286;-87
2023/10/12 09:39:14;;;;;;;0.00;0.00;;;15.50;99.90;;;;;;6218737;23;20011;-87
2023/10/12 09:41:41;;;;;;;0.00;0.00;;;15.60;99.90;;;;;;6219715;23;20008;-87
2023/10/12 09:44:11;;;;;;;0.00;0.00;;;15.60;99.90;;;;;;6219820;23;20058;-86
2023/10/12 09:46:46;;;;;;;0.00;0.00;;;15.50;99.90;;;;;;6218784;23;20039;-87
2023/10/12 09:49:22;;;;;;;0.00;0.00;;;15.20;99.90;;;;;;6219389;23;20000;-87
2023/10/12 09:52:03;;;;;;;0.00;0.00;;;15.10;99.90;;;;;;6219564;23;20004;-86
2023/10/12 09:54:46;;;;;;;0.00;0.00;;;15.10;99.90;;;;;;6219235;22;20115;-87
2023/10/12 09:57:31;;;;;;;0.00;0.00;;;14.80;99.90;;;;;;6219268;23;20028;-86
2023/10/12 10:00:00;;;;;;;0.00;0.00;;;;;;;;;;6219516;23;20066;-87
2023/10/12 10:02:34;;;;;;;0.00;0.00;;;14.90;99.90;;;;;;6245934;23;20011;-87
2023/10/12 10:07:36;;;;;;;0.00;0.00;;;15.10;99.90;;;;;;6255406;23;20008;-87
2023/10/12 10:10:05;;;;;;;0.00;0.00;;;15.20;99.90;;;;;;6218791;23;20070;-87
2023/10/12 10:12:36;;;;;;;0.00;0.00;;;;;;;;;;6218894;23;20087;-87
2023/10/12 10:15:20;;;;;;;0.00;0.00;;;15.40;99.90;;;;;;6219981;23;20047;-87
2023/10/12 10:17:52;;;;;;;0.00;0.00;;;15.40;99.90;;;;;;6218858;23;20015;-86
2023/10/12 10:22:59;;;;;;;0.00;0.00;;;15.50;99.90;;;;;;6246528;23;20015;-87
2023/10/12 10:25:35;;;;;;;0.00;0.00;;;15.40;99.90;;;;;;6219142;23;20015;-87
2023/10/12 10:28:09;;;;;;;0.00;0.00;;;15.60;99.90;;;;;;6217995;23;20008;-85
2023/10/12 10:30:41;;;;;;;0.00;0.00;;;15.70;99.90;;;;;;6218772;23;20028;-86
2023/10/12 10:33:12;;;;;;;0.00;0.00;;;15.70;99.90;;;;;;6245490;23;20415;-87
2023/10/12 10:36:10;;;;;;;0.00;0.00;;;15.60;99.90;;;;;;6218513;23;20576;-88
2023/10/12 10:38:42;;;;;;;0.00;0.00;;;15.50;99.90;;;;;;6218301;23;20000;-87
2023/10/12 10:41:17;;;;;;;0.00;0.00;;;;;;;;;;6218219;23;20000;-87
2023/10/12 10:43:43;;;;;;;0.00;0.00;;;15.60;99.90;;;;;;6217975;23;20324;-87
2023/10/12 10:46:10;;;;;;;0.00;0.00;;;15.80;99.90;;;;;;6218040;23;20493;-87
2023/10/12 10:48:38;;;;;;;0.00;0.00;;;15.90;99.90;;;;;;6218262;23;20004;-86
2023/10/12 10:51:10;;;;;;;0.00;0.00;;;;;;;;;;6218456;23;20435;-86
2023/10/12 10:53:37;;;;;;;0.00;0.00;;;;;;;;;;6219203;23;20093;-86
2023/10/12 10:56:16;;;;;;;0.00;0.00;;;15.90;99.90;;;;;;6218285;23;20083;-88
2023/10/12 10:58:46;;;;;;;0.00;0.00;;;15.90;99.90;;;;;;6218385;23;20457;-86
2023/10/12 11:01:14;;;;;;;0.03;0.03;;;15.80;99.90;;;;;;6218357;23;20004;-86
2023/10/12 11:03:41;;;;;;;0.00;0.00;;;;;;;;;;6217323;23;20050;-86
2023/10/12 11:06:21;;;;;;;0.00;0.00;;;15.80;99.90;;;;;;6217324;23;20294;-87
2023/10/12 11:08:53;;;;;;;0.00;0.00;;;15.80;99.90;;;;;;6218421;23;20000;-86
2023/10/12 11:11:37;;;;;;;0.00;0.00;;;;;;;;;;6218035;23;20459;-87
2023/10/12 11:14:03;;;;;;;0.00;0.00;;;;;;;;;;6214787;23;20027;-86
2023/10/12 11:16:29;;;;;;;0.00;0.00;;;;;;;;;;6217572;23;20012;-86
2023/10/12 11:18:55;;;;;;;0.00;0.00;;;15.60;99.90;;;;;;6216414;23;20456;-87
2023/10/12 11:21:21;;;;;;;0.00;0.00;;;15.50;99.90;;;;;;6217177;23;20078;-86
2023/10/12 11:23:50;;;;;;;0.00;0.00;;;;;;;;;;6217811;23;20004;-87
2023/10/12 11:26:20;;;;;;;0.00;0.00;;;;;;;;;;6218007;23;20008;-86
2023/10/12 11:29:00;;;;;;;0.00;0.00;;;15.20;99.90;;;;;;6216098;23;20008;-86
2023/10/12 11:31:32;;;;;;;0.00;0.00;;;;;;;;;;6219049;23;19996;-86
2023/10/12 11:33:58;;;;;;;0.00;0.00;;;15.40;99.90;;;;;;6218031;23;20012;-86
2023/10/12 11:36:25;;;;;;;0.00;0.00;;;15.40;99.90;;;;;;6217716;23;20011;-86
2023/10/12 11:39:01;;;;;;;0.00;0.00;;;15.60;99.90;;;;;;6219798;23;20011;-87
2023/10/12 11:41:27;;;;;;;0.00;0.00;;;15.60;99.90;;;;;;6220635;23;20031;-86
2023/10/12 11:43:54;;;;;;;0.00;0.00;;;15.70;99.90;;;;;;6218434;23;20028;-87
2023/10/12 11:46:23;;;;;;;0.00;0.00;;;15.70;99.90;;;;;;6217703;23;20000;-86
2023/10/12 11:49:04;;;;;;;0.00;0.00;;;15.90;99.90;;;;;;6245253;23;19997;-87
2023/10/12 11:51:30;;;;;;;0.00;0.00;;;;;;;;;;6217939;23;20004;-87
2023/10/12 11:53:56;;;;;;;0.00;0.00;;;;;;;;;;6217574;23;20004;-86
2023/10/12 11:56:25;;;;;;;0.00;0.00;;;15.50;99.90;;;;;;6217422;23;20004;-86
2023/10/12 11:58:54;;;;;;;0.00;0.00;;;;;;;;;;6216868;23;20004;-86
2023/10/12 12:01:24;;;;;;;0.00;0.00;;;15.40;99.90;;;;;;6243835;23;20040;-86
2023/10/12 12:03:54;;;;;;;0.00;0.00;;;15.50;99.90;;;;;;6217541;23;20095;-86
2023/10/12 12:06:21;;;;;;;0.00;0.00;;;;;;;;;;6215967;23;20008;-86
2023/10/12 12:08:47;;;;;;;0.00;0.00;;;15.50;99.90;;;;;;6216256;23;20004;-86
2023/10/12 12:11:19;;;;;;;0.00;0.00;;;;;;;;;;6217677;23;20054;-86
2023/10/12 12:13:52;;;;;;;0.00;0.00;;;15.50;99.90;;;;;;6216578;23;20007;-86
2023/10/12 12:16:21;;;;;;;0.00;0.00;;;;;;;;;;6215753;23;20005;-85
2023/10/12 12:18:49;;;;;;;0.00;0.00;;;15.20;99.90;;;;;;6215957;23;20004;-86
2023/10/12 12:21:17;;;;;;;0.00;0.00;;;15.20;99.90;;;;;;6217119;23;20008;-85
2023/10/12 12:23:47;;;;;;;0.00;0.00;;;;;;;;;;6216822;23;20008;-86
2023/10/12 12:26:17;;;;;;;0.00;0.00;;;15.20;99.90;;;;;;6213564;23;20050;-87
2023/10/12 12:28:44;;;;;;;0.00;0.00;;;;;;;;;;6216500;23;20008;-86
2023/10/12 12:31:13;;;;;;;0.00;0.00;;;15.30;99.90;;;;;;6216576;23;20378;-86
2023/10/12 12:33:41;;;;;;;0.00;0.00;;;15.50;99.90;;;;;;6219085;23;20000;-86
2023/10/12 12:36:10;;;;;;;0.00;0.00;;;15.50;99.90;;;;;;6217457;23;20446;-86
2023/10/12 12:41:19;;;;;;;0.00;0.00;;;15.40;99.90;;;;;;6245498;23;20012;-87
2023/10/12 12:43:46;;;;;;;0.00;0.00;;;15.40;99.90;;;;;;6218850;23;20012;-86
2023/10/12 12:46:12;;;;;;;0.00;0.00;;;15.40;99.90;;;;;;6219000;23;20317;-87
2023/10/12 12:48:38;;;;;;;0.00;0.00;;;;;;;;;;6219033;23;20092;-86
2023/10/12 12:51:10;;;;;;;0.00;0.00;;;15.20;99.90;;;;;;6246615;23;20416;-86
2023/10/12 12:53:36;;;;;;;0.00;0.00;;;;;;;;;;6218756;23;20020;-87
2023/10/12 12:56:02;;;;;;;0.00;0.00;;;;;;;;;;6218987;23;20458;-86
2023/10/12 12:58:28;;;;;;;0.00;0.00;;;15.50;99.90;;;;;;6217657;23;20012;-86
2023/10/12 13:00:54;;;;;;;0.00;0.00;;;;;;;;;;6217336;23;20023;-86
2023/10/12 13:03:20;;;;;;;0.00;0.00;;;15.30;99.90;;;;;;6218263;23;20004;-87
2023/10/12 13:05:46;;;;;;;0.00;0.00;;;15.20;99.90;;;;;;6219198;23;20003;-86
2023/10/12 13:08:16;;;;;;;0.00;0.00;;;;;;;;;;6218786;23;20404;-86
2023/10/12 13:10:42;;;;;;;0.00;0.00;;;;;;;;;;6218425;23;20091;-86
2023/10/12 13:13:08;;;;;;;0.00;0.00;;;15.50;99.90;;;;;;6218518;23;20040;-86
2023/10/12 13:15:41;;;;;;;0.00;0.00;;;;;;;;;;6218792;23;20325;-87
2023/10/12 13:18:14;;;;;;;0.00;0.00;;;15.60;99.90;;;;;;6218986;23;20007;-86
2023/10/12 13:20:46;;;;;;;0.00;0.00;;;15.50;99.90;;;;;;6218523;23;20000;-87
2023/10/12 13:23:14;;;;;;;0.00;0.00;;;15.60;99.90;;;;;;6216405;23;20046;-86
2023/10/12 13:25:40;;;;;;;0.00;0.00;;;;;;;;;;6217451;23;20004;-87
2023/10/12 13:28:09;;;;;;;0.00;0.00;;;;;;;;;;6217872;23;20016;-86
2023/10/12 13:30:36;;;;;;;0.00;0.00;;;;;;;;;;6218830;23;20000;-87
2023/10/12 13:33:03;;;;;;;0.00;0.00;;;15.50;99.90;;;;;;6218774;23;20011;-86
2023/10/12 13:35:32;;;;;;;0.00;0.00;;;;;;;;;;6245485;22;20054;-86
2023/10/12 13:38:05;;;;;;;0.00;0.00;;;15.50;99.90;;;;;;6218599;23;20035;-88
2023/10/12 13:40:31;;;;;;;0.00;0.00;;;;;;;;;;6218007;23;20027;-89
2023/10/12 13:43:06;;;;;;;0.00;0.00;;;;;;;;;;6244995;23;20079;-88
2023/10/12 13:45:32;;;;;;;0.00;0.00;;;15.30;99.90;;;;;;6217351;23;20008;-87
2023/10/12 13:47:58;;;;;;;0.00;0.00;;;;;;;;;;6218268;23;20312;-87
2023/10/12 13:50:24;;;;;;;0.00;0.00;;;;;;;;;;6218726;23;20004;-88
2023/10/12 13:52:50;;;;;;;0.00;0.00;;;;;;;;;;6217578;23;20011;-88
2023/10/12 13:55:16;;;;;;;0.00;0.00;;;;;;;;;;6216883;23;20007;-88
2023/10/12 13:57:55;;;;;;;0.00;0.00;;;14.90;99.90;;;;;;6216954;23;20000;-87
2023/10/12 14:00:25;;;;;;;0.00;0.00;;;14.90;99.90;;;;;;6217498;23;20015;-88
2023/10/12 14:02:57;;;;;;;0.00;0.00;;;;;;;;;;6217383;23;20099;-88
2023/10/12 14:05:29;;;;;;;0.00;0.00;;;15.20;99.90;;;;;;6215644;23;20015;-87
2023/10/12 14:07:58;;;;;;;0.00;0.00;;;15.30;99.90;;;;;;6216655;23;20087;-88
2023/10/12 14:10:26;;;;;;;0.00;0.00;;;15.20;99.90;;;;;;6217275;23;20380;-88
2023/10/12 14:12:53;;;;;;;0.00;0.00;;;15.30;99.90;;;;;;6217628;23;20032;-87
2023/10/12 14:15:22;;;;;;;0.00;0.00;;;15.20;99.90;;;;;;6217710;23;20027;-88
2023/10/12 14:17:54;;;;;;;0.00;0.00;;;;;;;;;;6217901;23;20008;-87
2023/10/12 14:20:20;;;;;;;0.00;0.00;;;;;;;;;;6217800;23;20004;-87
2023/10/12 14:22:46;;;;;;;0.00;0.00;;;15.00;99.90;;;;;;6217206;23;20036;-88
2023/10/12 14:25:17;;;;;;;0.00;0.00;;;;;;;;;;6217849;23;20054;-88
2023/10/12 14:27:43;;;;;;;0.00;0.00;;;;;;;;;;6217014;23;20005;-87
2023/10/12 14:30:16;;;;;;;0.05;0.05;;;15.00;99.90;;;;;;6217707;23;20000;-87
2023/10/12 14:32:41;;;;;;;0.00;0.00;;;15.00;99.90;;;;;;6216784;23;20011;-87
2023/10/12 14:35:09;;;;;;;0.00;0.00;;;15.00;99.90;;;;;;6217128;23;19992;-87
2023/10/12 14:37:36;;;;;;;0.00;0.00;;;14.80;99.90;;;;;;6217684;23;20082;-89
2023/10/12 14:40:10;;;;;;;0.00;0.00;;;14.90;99.90;;;;;;6217557;23;20078;-88
2023/10/12 14:42:40;;;;;;;0.00;0.00;;;;;;;;;;6217630;23;20431;-88
2023/10/12 14:45:10;;;;;;;0.00;0.00;;;14.70;99.90;;;;;;6216037;23;20004;-88
2023/10/12 14:47:36;;;;;;;0.00;0.00;;;14.90;99.90;;;;;;6216992;23;20061;-88
2023/10/12 14:50:06;;;;;;;0.00;0.00;;;14.90;99.90;;;;;;6217597;23;20000;-89
2023/10/12 14:52:38;;;;;;;;;;;14.90;99.90;;;;;;6218289;23;20004;-89
2023/10/12 14:55:10;;;;;;;0.00;0.00;;;15.10;99.90;;;;;;6217462;23;19907;-89
2023/10/12 14:57:38;;;;;;;0.00;0.00;;;;;;;;;;6216184;23;20447;-87
2023/10/12 15:00:20;;;;;;;0.00;0.00;;;15.20;99.90;;;;;;6217783;23;20351;-87
2023/10/12 15:02:48;;;;;;;0.00;0.00;;;;;;;;;;6215958;23;20371;-87
2023/10/12 15:05:14;;;;;;;0.00;0.00;;;;;;;;;;6241239;22;20004;-88
2023/10/12 15:07:40;;;;;;;0.00;0.00;;;;;;;;;;6216481;23;20004;-90
2023/10/12 15:10:06;;;;;;;0.00;0.00;;;14.30;99.90;;;;;;6216933;23;20086;-87
2023/10/12 15:12:33;;;;;;;0.00;0.00;;;15.00;99.90;;;;;;6217466;23;20075;-87
2023/10/12 15:15:08;;;;;;;0.00;0.00;;;14.90;99.90;;;;;;6215782;23;20004;-88
2023/10/12 15:17:39;;;;;;;0.00;0.00;;;14.90;99.90;;;;;;6216881;23;20390;-88
2023/10/12 15:20:12;;;;;;;0.00;0.00;;;15.10;99.90;;;;;;6242320;23;20327;-88
2023/10/12 15:22:38;;;;;;;0.00;0.00;;;14.90;99.90;;;;;;6215484;23;20350;-89
2023/10/12 15:25:05;;;;;;;0.00;0.00;;;15.00;99.90;;;;;;6215917;23;20016;-89
2023/10/12 15:27:32;;;;;;;0.00;0.00;;;14.90;99.90;;;;;;6216667;23;20666;-89
2023/10/12 15:29:59;;;;;;;0.00;0.00;;;;;;;;;;6217177;23;20015;-88
2023/10/12 15:32:25;;;;;;;0.00;0.00;;;15.00;99.90;;;;;;6216895;23;19996;-88
2023/10/12 15:34:51;;;;;;;0.00;0.00;;;15.10;99.90;;;;;;6216445;22;20011;-89
2023/10/12 15:37:17;;;;;;;0.00;0.00;;;15.00;99.90;;;;;;6217300;23;20004;-89
2023/10/12 15:39:46;;;;;;;0.00;0.00;;;14.90;99.90;;;;;;6216756;23;20062;-89
2023/10/12 15:42:12;;;;;;;0.00;0.00;;;;;;;;;;6216591;23;20012;-89
2023/10/12 15:44:41;;;;;;;0.00;0.00;;;;;;;;;;6215969;22;20066;-87
2023/10/12 15:47:07;;;;;;;0.00;0.00;;;15.00;99.90;;;;;;6216513;23;20130;-89
2023/10/12 15:49:33;;;;;;;0.00;0.00;;;;;;;;;;6217134;23;20031;-87
2023/10/12 15:52:00;;;;;;;0.00;0.00;;;15.00;99.90;;;;;;6216752;23;20404;-88
2023/10/12 15:54:31;;;;;;;0.00;0.00;;;14.80;99.90;;;;;;6217065;23;20004;-89
2023/10/12 15:56:57;;;;;;;0.00;0.00;;;15.00;99.90;;;;;;6217181;23;20019;-88
2023/10/12 15:59:25;;;;;;;0.00;0.00;;;;;;;;;;6217594;23;20087;-88
2023/10/12 16:01:52;;;;;;;0.00;0.00;;;;;;;;;;6216647;23;20007;-88
2023/10/12 16:04:19;;;;;;;0.00;0.00;;;14.90;99.90;;;;;;6216800;23;20015;-89
2023/10/12 16:06:46;;;;;;;0.00;0.00;;;14.70;99.90;;;;;;6217073;23;20004;-89
2023/10/12 16:09:20;;;;;;;0.00;0.00;;;14.60;99.90;;;;;;6216971;23;20000;-86